Time;durP1;ratioP1;P1;durP2;ratioP2;P2;SDS_P1;SDS_P2;PMS_P1;PMS_P2;Temp;Humidity;BMP_temperature;BMP_pressure;BME280_temperature;BME280_humidity;BME280_pressure;Samples;Min_cycle;Max_cycle;Signal;HPM_P1;HPM_P2
2022/05/06 00:02:58;;;;;;;18.98;12.52;;;;;13.90;96692.00;;;;8369676;28;20239;-76
2022/05/06 00:07:04;;;;;;;20.08;13.48;;;;;13.90;96694.00;;;;8365774;28;20223;-72
2022/05/06 00:11:07;;;;;;;19.48;14.23;;;;;13.90;96691.00;;;;8352018;28;20603;-77
2022/05/06 00:15:11;;;;;;;18.15;12.98;;;;;13.80;96692.00;;;;8365191;28;20222;-75
2022/05/06 00:19:15;;;;;;;20.65;14.68;;;;;13.80;96697.00;;;;8357148;28;20684;-79
2022/05/06 00:23:19;;;;;;;18.15;13.00;;;;;13.80;96697.00;;;;8357465;28;20235;-71
2022/05/06 00:27:22;;;;;;;18.48;14.13;;;;;13.80;96703.00;;;;8355689;28;20219;-74
2022/05/06 00:31:26;;;;;;;21.15;13.70;;;;;13.80;96701.00;;;;8358484;28;20694;-78
2022/05/06 00:35:29;;;;;;;21.80;14.27;;;;;13.70;96701.00;;;;8361921;28;20227;-74
2022/05/06 00:39:34;;;;;;;20.83;14.35;;;;;13.70;96705.00;;;;8364038;28;20667;-70
2022/05/06 00:43:40;;;;;;;23.17;14.13;;;;;13.70;96695.00;;;;8359288;28;20310;-70
2022/05/06 00:47:43;;;;;;;22.98;16.40;;;;;13.70;96702.00;;;;8372312;28;20391;-71
2022/05/06 00:51:46;;;;;;;24.98;15.20;;;;;13.60;96694.00;;;;8372727;28;20311;-75
2022/05/06 00:55:51;;;;;;;23.98;15.32;;;;;13.60;96696.00;;;;8379635;28;20249;-72
2022/05/06 01:04:17;;;;;;;27.83;15.75;;;;;13.50;96682.00;;;;8379682;28;20223;-75
2022/05/06 01:08:21;;;;;;;24.38;15.77;;;;;13.50;96678.00;;;;8373245;28;20245;-78
2022/05/06 01:12:26;;;;;;;25.95;16.83;;;;;13.40;96686.00;;;;8378659;28;20581;-75
2022/05/06 01:16:33;;;;;;;29.13;16.70;;;;;13.40;96686.00;;;;8377330;28;20282;-76
2022/05/06 01:20:43;;;;;;;23.20;13.48;;;;;13.40;96691.00;;;;8377827;28;20311;-76
2022/05/06 01:24:48;;;;;;;26.20;15.43;;;;;13.40;96690.00;;;;8372565;28;20676;-71
2022/05/06 01:28:54;;;;;;;25.35;16.40;;;;;13.30;96694.00;;;;8376266;28;20235;-72
2022/05/06 01:32:58;;;;;;;26.17;17.00;;;;;13.30;96701.00;;;;8380222;28;20233;-71
2022/05/06 01:37:04;;;;;;;27.92;17.45;;;;;13.30;96695.00;;;;8379361;28;20280;-72
2022/05/06 01:41:15;;;;;;;24.30;16.70;;;;;13.30;96697.00;;;;8377701;28;20265;-71
2022/05/06 01:45:22;;;;;;;24.55;16.98;;;;;13.30;96700.00;;;;8371330;28;20246;-71
2022/05/06 01:49:28;;;;;;;26.48;16.27;;;;;13.20;96697.00;;;;8370021;28;20233;-71
2022/05/06 01:53:31;;;;;;;23.63;16.63;;;;;13.20;96698.00;;;;8368438;28;20246;-74
2022/05/06 01:57:36;;;;;;;23.60;16.60;;;;;13.20;96694.00;;;;8352362;28;21791;-76
2022/05/06 02:01:39;;;;;;;26.70;14.90;;;;;13.10;96695.00;;;;8376648;28;20223;-71
2022/05/06 02:05:43;;;;;;;27.20;16.80;;;;;13.10;96688.00;;;;8370316;28;20526;-74
2022/05/06 02:09:46;;;;;;;28.55;17.00;;;;;13.10;96701.00;;;;8374754;28;20708;-70
2022/05/06 02:13:50;;;;;;;31.08;17.85;;;;;13.10;96698.00;;;;8378219;28;20242;-73
2022/05/06 02:17:53;;;;;;;24.75;15.15;;;;;13.00;96693.00;;;;8373330;28;20698;-73
2022/05/06 02:21:57;;;;;;;22.60;16.20;;;;;13.00;96696.00;;;;8377617;28;20218;-73
2022/05/06 02:26:00;;;;;;;22.63;15.38;;;;;13.00;96696.00;;;;8373230;28;20291;-71
2022/05/06 02:34:27;;;;;;;25.65;16.80;;;;;12.90;96691.00;;;;8364752;28;20240;-73
2022/05/06 02:38:30;;;;;;;22.58;13.65;;;;;12.90;96684.00;;;;8378632;28;20237;-72
2022/05/06 02:42:34;;;;;;;25.77;15.80;;;;;12.90;96694.00;;;;8368357;28;20271;-75
2022/05/06 02:46:38;;;;;;;24.23;14.85;;;;;12.90;96696.00;;;;8376776;28;21310;-73
2022/05/06 02:50:42;;;;;;;32.28;16.48;;;;;12.80;96703.00;;;;8380551;28;20236;-73
2022/05/06 02:54:46;;;;;;;26.10;15.65;;;;;12.80;96701.00;;;;8369174;28;20728;-79
2022/05/06 02:58:49;;;;;;;26.85;15.00;;;;;12.70;96697.00;;;;8382583;28;20661;-72
2022/05/06 03:02:55;;;;;;;20.92;14.25;;;;;12.70;96699.00;;;;8424434;23;20668;-74
2022/05/06 03:06:58;;;;;;;19.92;14.82;;;;;12.70;96697.00;;;;8447012;27;20764;-74
2022/05/06 03:11:02;;;;;;;23.95;14.73;;;;;12.60;96694.00;;;;8446356;27;20275;-72
2022/05/06 03:15:07;;;;;;;22.25;13.38;;;;;12.60;96688.00;;;;8446791;27;20237;-75
2022/05/06 03:19:12;;;;;;;19.48;13.52;;;;;12.60;96685.00;;;;8449125;27;20307;-72
2022/05/06 03:23:16;;;;;;;19.27;12.40;;;;;12.50;96699.00;;;;8454902;27;20218;-77
2022/05/06 03:31:41;;;;;;;25.10;12.75;;;;;12.50;96698.00;;;;8443141;27;20225;-72
2022/05/06 03:35:47;;;;;;;18.90;11.25;;;;;12.50;96701.00;;;;8451119;27;20225;-71
2022/05/06 03:39:50;;;;;;;19.58;12.00;;;;;12.40;96706.00;;;;8445733;28;20228;-76
2022/05/06 03:43:53;;;;;;;15.85;12.52;;;;;12.40;96705.00;;;;8444734;28;20230;-76
2022/05/06 03:47:58;;;;;;;17.15;12.07;;;;;12.40;96700.00;;;;8444356;28;20239;-71
2022/05/06 03:52:04;;;;;;;18.80;12.10;;;;;12.40;96706.00;;;;8448768;27;20256;-73
2022/05/06 03:56:08;;;;;;;18.55;12.38;;;;;12.40;96701.00;;;;8402958;28;20225;-71
2022/05/06 04:00:12;;;;;;;15.50;11.18;;;;;12.30;96703.00;;;;8442978;27;20301;-72
2022/05/06 04:04:15;;;;;;;19.55;11.13;;;;;12.40;96718.00;;;;8468956;27;20638;-74
2022/05/06 04:08:20;;;;;;;16.10;10.52;;;;;12.30;96712.00;;;;8436090;27;20224;-78
2022/05/06 04:12:23;;;;;;;15.90;10.65;;;;;12.40;96718.00;;;;8309831;28;20653;-73
2022/05/06 04:16:27;;;;;;;17.90;10.80;;;;;12.40;96716.00;;;;8366492;27;20808;-69
2022/05/06 04:24:52;;;;;;;13.90;10.32;;;;;12.40;96729.00;;;;8398392;27;20311;-70
2022/05/06 04:28:55;;;;;;;16.70;11.23;;;;;12.40;96733.00;;;;8465045;27;20228;-75
2022/05/06 04:33:01;;;;;;;20.10;10.40;;;;;12.50;96739.00;;;;8357480;27;20216;-74
2022/05/06 04:37:06;;;;;;;14.52;9.70;;;;;12.50;96747.00;;;;8484981;27;20224;-71
2022/05/06 04:41:11;;;;;;;12.40;8.85;;;;;12.50;96739.00;;;;8486826;27;20768;-75
2022/05/06 04:45:14;;;;;;;12.63;8.85;;;;;12.50;96745.00;;;;8479054;27;20224;-70
2022/05/06 04:49:17;;;;;;;12.65;9.20;;;;;12.60;96749.00;;;;8435148;27;20719;-73
2022/05/06 04:53:21;;;;;;;13.40;9.38;;;;;12.60;96758.00;;;;8460994;27;20244;-72
2022/05/06 04:57:25;;;;;;;14.55;9.32;;;;;12.60;96747.00;;;;8419597;27;20228;-71
2022/05/06 05:01:28;;;;;;;14.70;8.75;;;;;12.70;96763.00;;;;8360064;27;20248;-72
2022/05/06 05:05:34;;;;;;;11.18;8.32;;;;;12.70;96766.00;;;;8467662;27;20234;-71
2022/05/06 05:09:38;;;;;;;12.07;8.65;;;;;12.80;96771.00;;;;8459209;27;20246;-69
2022/05/06 05:13:43;;;;;;;16.70;9.27;;;;;12.80;96783.00;;;;8458426;27;20340;-70
2022/05/06 05:17:47;;;;;;;14.38;9.80;;;;;12.90;96786.00;;;;8458283;27;20224;-70
2022/05/06 05:21:51;;;;;;;18.77;9.70;;;;;12.90;96785.00;;;;8457181;27;20235;-72
2022/05/06 05:25:54;;;;;;;12.85;8.32;;;;;13.00;96785.00;;;;8452534;27;21082;-73
2022/05/06 05:30:00;;;;;;;13.85;8.00;;;;;13.00;96779.00;;;;8472393;27;20816;-70
2022/05/06 05:34:03;;;;;;;10.38;7.82;;;;;13.00;96780.00;;;;8468663;27;20247;-75
2022/05/06 05:38:07;;;;;;;11.18;7.50;;;;;13.10;96788.00;;;;8476041;27;20307;-70
2022/05/06 05:42:10;;;;;;;10.65;8.18;;;;;13.20;96779.00;;;;8463371;27;20229;-70
2022/05/06 05:50:36;;;;;;;15.60;8.15;;;;;13.40;96782.00;;;;8474062;27;20238;-73
2022/05/06 05:54:40;;;;;;;9.95;7.05;;;;;13.40;96784.00;;;;8466569;27;20235;-72
2022/05/06 05:58:44;;;;;;;11.07;7.03;;;;;13.50;96792.00;;;;8474630;27;20748;-73
2022/05/06 06:02:49;;;;;;;8.23;6.70;;;;;13.60;96790.00;;;;8471150;27;20239;-71
2022/05/06 06:06:52;;;;;;;12.45;7.38;;;;;13.70;96793.00;;;;8480673;27;20322;-72
2022/05/06 06:10:56;;;;;;;14.52;6.90;;;;;13.80;96791.00;;;;8471029;27;20226;-69
2022/05/06 06:14:59;;;;;;;8.25;6.43;;;;;13.90;96801.00;;;;8476010;27;20292;-73
2022/05/06 06:19:04;;;;;;;12.82;6.55;;;;;14.10;96818.00;;;;8468016;27;20239;-71
2022/05/06 06:23:07;;;;;;;8.70;6.10;;;;;14.20;96806.00;;;;8471179;27;20232;-72
2022/05/06 06:27:10;;;;;;;7.60;5.95;;;;;14.30;96804.00;;;;8470042;27;20228;-69
2022/05/06 06:31:14;;;;;;;9.40;6.18;;;;;14.50;96812.00;;;;8459942;27;20232;-75
2022/05/06 06:35:19;;;;;;;8.25;5.65;;;;;14.60;96804.00;;;;8462033;27;20301;-71
2022/05/06 06:39:23;;;;;;;10.80;5.45;;;;;14.70;96799.00;;;;8467073;27;20826;-70
2022/05/06 06:43:26;;;;;;;8.77;5.75;;;;;14.80;96811.00;;;;8466279;27;20236;-72
2022/05/06 06:47:30;;;;;;;9.85;5.90;;;;;14.80;96808.00;;;;8464214;27;20232;-76
2022/05/06 06:51:35;;;;;;;7.75;5.95;;;;;14.90;96803.00;;;;8466890;27;20732;-68
2022/05/06 06:55:38;;;;;;;7.63;5.10;;;;;14.90;96796.00;;;;8481752;27;20709;-73
2022/05/06 06:59:42;;;;;;;9.50;5.50;;;;;14.90;96806.00;;;;8473384;27;20229;-77
2022/05/06 07:03:45;;;;;;;8.00;5.30;;;;;15.00;96805.00;;;;8464488;27;20234;-76
2022/05/06 07:12:30;;;;;;;8.23;5.60;;;;;15.20;96807.00;;;;8455119;27;21055;-73
2022/05/06 07:16:35;;;;;;;11.55;5.65;;;;;15.30;96805.00;;;;8460443;27;20221;-71
2022/05/06 07:20:38;;;;;;;8.77;4.90;;;;;15.50;96801.00;;;;8455218;27;20301;-75
2022/05/06 07:24:43;;;;;;;5.53;4.95;;;;;15.60;96798.00;;;;8467966;27;20585;-76
2022/05/06 07:28:46;;;;;;;7.20;4.70;;;;;15.90;96796.00;;;;8456263;27;20213;-71
2022/05/06 07:32:49;;;;;;;7.22;4.78;;;;;16.10;96794.00;;;;8455002;27;20629;-75
2022/05/06 07:36:53;;;;;;;8.77;4.32;;;;;16.40;96803.00;;;;8462823;27;20222;-71
2022/05/06 07:40:58;;;;;;;8.57;4.50;;;;;16.60;96804.00;;;;8461481;27;20232;-75
2022/05/06 07:45:01;;;;;;;6.93;4.72;;;;;16.80;96814.00;;;;8447816;27;21009;-74
2022/05/06 07:49:06;;;;;;;8.73;4.57;;;;;16.80;96808.00;;;;8453630;27;20620;-72
2022/05/06 07:53:09;;;;;;;7.03;5.15;;;;;16.70;96816.00;;;;8458168;27;20241;-72
2022/05/06 07:57:13;;;;;;;8.50;5.00;;;;;16.90;96815.00;;;;8467213;27;20867;-74
2022/05/06 08:01:16;;;;;;;14.55;6.00;;;;;17.40;96821.00;;;;8460767;27;20308;-71
2022/05/06 08:05:22;;;;;;;5.25;4.47;;;;;17.70;96819.00;;;;8453728;27;20233;-69
2022/05/06 08:09:25;;;;;;;11.65;5.00;;;;;17.70;96819.00;;;;8475653;27;20735;-70
2022/05/06 08:13:32;;;;;;;7.50;4.50;;;;;17.80;96825.00;;;;8473623;27;20239;-70
2022/05/06 08:17:35;;;;;;;7.68;5.80;;;;;17.60;96824.00;;;;8475173;27;20681;-70
2022/05/06 08:21:38;;;;;;;12.63;5.97;;;;;17.40;96817.00;;;;8474936;27;20324;-70
2022/05/06 08:25:42;;;;;;;7.75;5.07;;;;;17.30;96831.00;;;;8496165;27;20228;-70
2022/05/06 08:29:47;;;;;;;10.23;5.82;;;;;17.30;96836.00;;;;8487444;27;20222;-68
2022/05/06 08:33:51;;;;;;;7.43;5.28;;;;;17.40;96831.00;;;;8476707;27;20221;-69
2022/05/06 08:37:54;;;;;;;14.73;5.90;;;;;17.60;96835.00;;;;8457541;27;20218;-71
2022/05/06 08:42:00;;;;;;;10.85;6.15;;;;;17.60;96830.00;;;;8456477;27;20253;-69
2022/05/06 08:54:50;;;;;;;12.57;6.63;;;;;18.70;96839.00;;;;8455470;27;20233;-70
2022/05/06 08:58:54;;;;;;;9.20;6.65;;;;;18.70;96838.00;;;;8460390;27;20245;-70
2022/05/06 09:02:58;;;;;;;14.40;6.40;;;;;18.90;96844.00;;;;8456435;27;20713;-69
2022/05/06 09:07:14;;;;;;;9.13;6.40;;;;;19.10;96844.00;;;;8459107;27;20306;-68
2022/05/06 09:11:18;;;;;;;22.70;7.53;;;;;19.30;96847.00;;;;8449294;27;20232;-69
2022/05/06 09:19:43;;;;;;;12.90;8.10;;;;;19.60;96840.00;;;;8451731;27;20225;-70
2022/05/06 09:23:47;;;;;;;12.63;8.13;;;;;19.70;96843.00;;;;8464438;27;20305;-71
2022/05/06 09:27:54;;;;;;;11.65;7.18;;;;;20.00;96849.00;;;;8469407;27;20663;-70
2022/05/06 09:32:13;;;;;;;9.57;7.72;;;;;20.40;96845.00;;;;8469469;27;20229;-71
2022/05/06 09:36:26;;;;;;;13.13;7.55;;;;;20.90;96850.00;;;;8460285;27;20253;-71
2022/05/06 09:40:30;;;;;;;10.85;8.38;;;;;20.90;96845.00;;;;8465056;27;20225;-70
2022/05/06 09:44:33;;;;;;;13.82;8.15;;;;;21.00;96854.00;;;;8465523;27;20641;-70
2022/05/06 09:48:55;;;;;;;14.60;8.40;;;;;20.70;96858.00;;;;8470919;27;20226;-69
2022/05/06 09:53:02;;;;;;;11.00;8.45;;;;;20.50;96855.00;;;;8467150;27;20772;-70
2022/05/06 09:57:06;;;;;;;14.23;8.38;;;;;20.40;96853.00;;;;8465925;27;20228;-68
2022/05/06 10:01:09;;;;;;;13.48;9.23;;;;;20.30;96865.00;;;;8445379;27;20223;-69
2022/05/06 10:05:12;;;;;;;13.25;9.70;;;;;20.20;96872.00;;;;8475694;27;20227;-71
2022/05/06 10:09:20;;;;;;;11.10;8.50;;;;;20.40;96865.00;;;;8475812;27;20224;-69
2022/05/06 10:13:26;;;;;;;14.02;9.55;;;;;20.70;96875.00;;;;8489442;27;20892;-70
2022/05/06 10:17:48;;;;;;;10.80;9.68;;;;;20.80;96869.00;;;;8486987;27;20233;-69
2022/05/06 10:21:51;;;;;;;21.00;9.65;;;;;21.10;96875.00;;;;8468546;27;20213;-72
2022/05/06 10:25:57;;;;;;;15.30;10.00;;;;;20.90;96863.00;;;;8471916;27;20229;-69
2022/05/06 10:34:22;;;;;;;11.60;8.50;;;;;21.20;96869.00;;;;8461108;27;20234;-74
2022/05/06 10:38:26;;;;;;;13.85;9.93;;;;;21.20;96875.00;;;;8477782;27;20221;-77
2022/05/06 10:42:34;;;;;;;13.85;10.10;;;;;21.10;96877.00;;;;8482652;27;21035;-74
2022/05/06 10:46:40;;;;;;;14.60;10.10;;;;;20.90;96860.00;;;;8475077;27;20214;-75
2022/05/06 10:50:43;;;;;;;12.18;8.45;;;;;20.90;96867.00;;;;8474992;27;20222;-75
2022/05/06 10:54:48;;;;;;;16.95;9.85;;;;;20.60;96863.00;;;;8478265;27;20246;-76
2022/05/06 10:58:58;;;;;;;11.07;8.60;;;;;20.60;96858.00;;;;8475321;27;20245;-76
2022/05/06 11:03:01;;;;;;;12.30;8.52;;;;;20.80;96848.00;;;;8468533;27;20236;-73
2022/05/06 11:07:12;;;;;;;13.60;8.90;;;;;20.90;96859.00;;;;8473082;27;20229;-75
2022/05/06 11:11:17;;;;;;;12.05;9.20;;;;;21.00;96849.00;;;;8479188;27;20225;-75
2022/05/06 11:15:23;;;;;;;13.77;8.98;;;;;21.10;96849.00;;;;8482600;27;20253;-77
2022/05/06 11:19:33;;;;;;;10.88;8.50;;;;;20.90;96852.00;;;;8460581;27;20981;-74
2022/05/06 11:23:36;;;;;;;13.50;9.00;;;;;21.10;96851.00;;;;8472667;27;20298;-74
2022/05/06 11:27:40;;;;;;;11.50;8.80;;;;;21.20;96846.00;;;;8474374;27;20257;-73
2022/05/06 11:31:47;;;;;;;12.40;8.45;;;;;21.40;96852.00;;;;8469676;27;20232;-72
2022/05/06 11:35:50;;;;;;;10.05;8.48;;;;;21.50;96839.00;;;;8477134;27;20316;-69
2022/05/06 11:40:18;;;;;;;12.70;8.50;;;;;21.70;96852.00;;;;8487001;27;20325;-74
2022/05/06 11:47:27;;;;;;;11.65;8.38;;;;;21.80;96854.00;;;;8454551;27;20229;-72
2022/05/06 11:48:51;;;;;;;10.00;8.23;;;;;21.70;96857.00;;;;8455503;27;20308;-73
2022/05/06 11:52:56;;;;;;;11.32;8.45;;;;;21.60;96852.00;;;;8465139;27;20246;-73
2022/05/06 11:56:59;;;;;;;9.90;8.00;;;;;21.80;96846.00;;;;8470204;27;20798;-70
2022/05/06 12:01:03;;;;;;;13.07;8.18;;;;;21.60;96846.00;;;;8469993;27;20221;-72
2022/05/06 12:05:14;;;;;;;13.77;8.48;;;;;21.60;96848.00;;;;8461711;27;20811;-74
2022/05/06 12:09:21;;;;;;;10.80;7.93;;;;;21.70;96844.00;;;;8475746;27;20305;-70
2022/05/06 12:13:31;;;;;;;11.40;7.68;;;;;21.60;96839.00;;;;8474439;27;20236;-75
2022/05/06 12:17:37;;;;;;;10.02;7.88;;;;;21.40;96842.00;;;;8481652;27;20240;-73
2022/05/06 12:21:41;;;;;;;11.30;7.72;;;;;21.60;96839.00;;;;8485754;27;20669;-74
2022/05/06 12:25:55;;;;;;;11.00;7.97;;;;;21.90;96842.00;;;;8485435;27;20243;-73
2022/05/06 12:29:59;;;;;;;10.98;7.88;;;;;22.00;96844.00;;;;8479519;27;20237;-71
2022/05/06 12:34:06;;;;;;;11.10;7.30;;;;;22.10;96845.00;;;;8477348;27;20214;-77
2022/05/06 12:38:10;;;;;;;9.68;8.25;;;;;22.10;96841.00;;;;8478768;27;20233;-72
2022/05/06 12:42:15;;;;;;;11.50;8.98;;;;;21.90;96839.00;;;;8465225;27;20226;-75
2022/05/06 12:46:28;;;;;;;11.40;8.10;;;;;21.90;96841.00;;;;8472798;27;20237;-75
2022/05/06 12:50:31;;;;;;;12.77;8.00;;;;;22.10;96836.00;;;;8472966;27;20236;-71
2022/05/06 12:54:37;;;;;;;14.73;8.65;;;;;22.20;96833.00;;;;8466929;27;20707;-74
2022/05/06 12:58:41;;;;;;;11.18;8.32;;;;;22.00;96834.00;;;;8472031;27;20225;-73
2022/05/06 13:02:49;;;;;;;8.15;7.35;;;;;21.90;96836.00;;;;8467548;27;20585;-74
2022/05/06 13:06:52;;;;;;;8.68;7.78;;;;;21.90;96826.00;;;;8469191;27;20226;-74
2022/05/06 13:10:57;;;;;;;10.45;8.15;;;;;21.80;96827.00;;;;8473104;27;20225;-74
2022/05/06 13:15:01;;;;;;;12.52;8.70;;;;;21.60;96830.00;;;;8468712;27;20635;-73
2022/05/06 13:19:04;;;;;;;8.95;7.93;;;;;21.50;96827.00;;;;8472962;27;20229;-70
2022/05/06 13:23:07;;;;;;;11.30;8.13;;;;;21.10;96824.00;;;;8455632;27;20229;-73
2022/05/06 13:27:13;;;;;;;9.85;8.82;;;;;20.90;96822.00;;;;8463421;27;20320;-73
2022/05/06 13:31:17;;;;;;;11.10;8.55;;;;;21.10;96824.00;;;;8468638;27;20305;-70
2022/05/06 13:35:20;;;;;;;8.98;7.82;;;;;21.30;96825.00;;;;8471233;27;20692;-73
2022/05/06 13:39:23;;;;;;;11.73;8.50;;;;;21.30;96824.00;;;;8479061;27;20232;-72
2022/05/06 13:43:28;;;;;;;10.40;8.15;;;;;21.40;96818.00;;;;8478211;27;20234;-75
2022/05/06 13:47:31;;;;;;;10.93;7.57;;;;;21.50;96815.00;;;;8471092;27;20768;-70
2022/05/06 13:51:35;;;;;;;11.80;7.60;;;;;21.50;96813.00;;;;8474946;27;20617;-73
2022/05/06 14:00:00;;;;;;;9.75;7.90;;;;;21.30;96816.00;;;;8470327;27;20222;-79
2022/05/06 14:04:04;;;;;;;9.90;8.40;;;;;21.10;96812.00;;;;8472078;27;20226;-73
2022/05/06 14:08:07;;;;;;;11.43;8.55;;;;;21.10;96814.00;;;;8468170;27;20224;-84
2022/05/06 14:12:11;;;;;;;11.52;8.35;;;;;20.90;96805.00;;;;8477184;28;20221;-78
2022/05/06 14:16:16;;;;;;;10.80;8.88;;;;;21.00;96803.00;;;;8462313;28;20452;-75
2022/05/06 14:20:19;;;;;;;10.90;8.45;;;;;21.10;96812.00;;;;8472166;27;20229;-76
2022/05/06 14:24:22;;;;;;;8.88;7.70;;;;;21.30;96812.00;;;;8468609;27;20236;-73
2022/05/06 14:28:30;;;;;;;11.10;7.65;;;;;21.10;96811.00;;;;8457725;27;20237;-75
2022/05/06 14:32:35;;;;;;;13.00;9.70;;;;;20.70;96802.00;;;;8477370;27;20229;-74
2022/05/06 14:36:38;;;;;;;9.88;7.78;;;;;20.60;96806.00;;;;8465271;27;20310;-74
2022/05/06 14:40:41;;;;;;;9.45;8.38;;;;;20.50;96814.00;;;;8462367;27;20227;-74
2022/05/06 14:44:44;;;;;;;9.48;8.38;;;;;20.60;96819.00;;;;8470329;27;20222;-74
2022/05/06 14:48:49;;;;;;;13.15;8.75;;;;;20.60;96820.00;;;;8461634;27;20230;-73
2022/05/06 14:52:52;;;;;;;12.45;8.52;;;;;20.60;96822.00;;;;8476508;27;20316;-72
2022/05/06 14:56:55;;;;;;;12.68;8.88;;;;;20.40;96822.00;;;;8470068;27;22114;-72
2022/05/06 15:00:59;;;;;;;14.82;8.95;;;;;20.30;96833.00;;;;8467370;27;20224;-73
2022/05/06 15:05:04;;;;;;;11.23;8.77;;;;;20.10;96830.00;;;;8479670;27;20252;-72
2022/05/06 15:09:08;;;;;;;11.35;9.45;;;;;19.90;96831.00;;;;8485578;27;20704;-72
2022/05/06 15:13:12;;;;;;;15.88;9.93;;;;;19.50;96830.00;;;;8473927;27;20228;-72
2022/05/06 15:17:15;;;;;;;12.77;10.38;;;;;19.00;96836.00;;;;8485757;27;20317;-70
2022/05/06 15:21:20;;;;;;;13.30;10.68;;;;;18.60;96832.00;;;;8470561;27;20222;-77
2022/05/06 15:25:24;;;;;;;12.77;10.93;;;;;18.30;96835.00;;;;8474664;27;20232;-72
2022/05/06 15:29:29;;;;;;;17.60;12.18;;;;;18.20;96830.00;;;;8476359;27;20263;-71
2022/05/06 15:33:32;;;;;;;16.17;11.07;;;;;18.10;96838.00;;;;8468384;27;20386;-73
2022/05/06 15:37:37;;;;;;;15.90;11.73;;;;;18.10;96834.00;;;;8470212;27;20254;-74
2022/05/06 15:41:40;;;;;;;14.70;11.07;;;;;18.20;96835.00;;;;8469410;27;20286;-79
2022/05/06 15:45:43;;;;;;;15.55;10.80;;;;;18.30;96841.00;;;;8466732;27;21041;-76
2022/05/06 15:49:46;;;;;;;13.00;10.68;;;;;18.30;96843.00;;;;8473474;27;20322;-76
2022/05/06 15:53:51;;;;;;;13.40;10.55;;;;;18.30;96832.00;;;;8471796;27;20236;-74
2022/05/06 15:57:54;;;;;;;19.55;13.88;;;;;18.10;96838.00;;;;8465717;27;20233;-75
2022/05/06 16:01:58;;;;;;;16.58;12.75;;;;;17.80;96843.00;;;;8470015;27;20688;-72
2022/05/06 16:06:01;;;;;;;19.38;13.50;;;;;17.50;96846.00;;;;8473922;27;20222;-70
2022/05/06 16:10:14;;;;;;;16.38;12.07;;;;;17.10;96849.00;;;;8472967;27;20218;-70
2022/05/06 16:15:17;;;;;;;18.90;13.18;;;;;16.70;96840.00;;;;8475917;27;20645;-68
2022/05/06 16:18:41;;;;;;;21.52;14.35;;;;;16.40;96839.00;;;;8467753;27;20230;-69
2022/05/06 16:22:45;;;;;;;20.50;14.02;;;;;16.10;96841.00;;;;8477970;27;20230;-69
2022/05/06 16:26:49;;;;;;;20.52;14.48;;;;;15.90;96834.00;;;;8472914;27;20712;-70
2022/05/06 16:30:53;;;;;;;17.90;13.77;;;;;15.70;96828.00;;;;8468291;27;20228;-69
2022/05/06 16:39:17;;;;;;;21.80;14.85;;;;;15.60;96824.00;;;;8472169;27;20221;-70
2022/05/06 16:43:22;;;;;;;21.45;14.85;;;;;15.50;96820.00;;;;8471045;27;20228;-70
2022/05/06 16:47:25;;;;;;;24.40;15.68;;;;;15.50;96825.00;;;;8460515;27;20662;-71
2022/05/06 16:51:28;;;;;;;23.38;16.80;;;;;15.40;96827.00;;;;8464827;27;20606;-73
2022/05/06 16:55:33;;;;;;;27.73;17.02;;;;;15.30;96820.00;;;;8456726;27;20230;-70
2022/05/06 16:59:38;;;;;;;23.58;16.00;;;;;15.20;96813.00;;;;8460546;27;20230;-72
2022/05/06 17:03:41;;;;;;;23.67;17.13;;;;;15.20;96811.00;;;;8415551;27;20608;-72
2022/05/06 17:07:45;;;;;;;25.05;16.98;;;;;15.30;96806.00;;;;8418019;27;20868;-73
2022/05/06 17:11:48;;;;;;;26.85;16.90;;;;;15.30;96809.00;;;;8456736;27;20789;-73
2022/05/06 17:15:53;;;;;;;25.15;17.00;;;;;15.40;96807.00;;;;8421234;27;20288;-74
2022/05/06 17:19:57;;;;;;;27.85;18.30;;;;;15.50;96811.00;;;;8375337;27;20237;-74
2022/05/06 17:24:01;;;;;;;27.42;19.00;;;;;15.60;96812.00;;;;8457696;27;20256;-76
2022/05/06 17:28:04;;;;;;;30.92;19.92;;;;;15.70;96815.00;;;;8451067;27;20641;-76
2022/05/06 17:32:09;;;;;;;30.38;18.80;;;;;15.70;96818.00;;;;8454420;27;20219;-78
2022/05/06 17:36:13;;;;;;;29.55;19.30;;;;;15.60;96818.00;;;;8449647;27;20238;-77
2022/05/06 17:40:16;;;;;;;29.10;18.27;;;;;15.50;96806.00;;;;8455863;27;20722;-77
2022/05/06 17:44:19;;;;;;;27.05;19.20;;;;;15.50;96812.00;;;;8450490;27;20244;-77
2022/05/06 17:48:24;;;;;;;28.35;19.58;;;;;15.60;96816.00;;;;8461663;27;20226;-78
2022/05/06 17:52:27;;;;;;;29.27;20.00;;;;;15.60;96812.00;;;;8458417;27;20226;-77
2022/05/06 17:56:30;;;;;;;31.88;20.65;;;;;15.60;96818.00;;;;8455318;27;20285;-77
2022/05/06 18:05:09;;;;;;;31.27;20.95;;;;;15.60;96820.00;;;;8339191;28;20240;-77
2022/05/06 18:09:12;;;;;;;39.45;24.27;;;;;15.50;96827.00;;;;8435047;28;20230;-76
2022/05/06 18:13:15;;;;;;;27.58;19.60;;;;;15.30;96825.00;;;;8443424;28;20230;-77
2022/05/06 18:17:20;;;;;;;26.52;19.17;;;;;15.20;96833.00;;;;8437354;28;20238;-78
2022/05/06 18:21:25;;;;;;;22.83;18.52;;;;;15.20;96831.00;;;;8440217;28;20746;-76
2022/05/06 18:25:28;;;;;;;23.23;17.02;;;;;15.20;96834.00;;;;8445641;28;20222;-77
2022/05/06 18:29:32;;;;;;;30.48;19.33;;;;;15.10;96838.00;;;;8438739;28;20232;-79
2022/05/06 18:33:35;;;;;;;30.10;19.70;;;;;15.10;96831.00;;;;8451963;28;20261;-77
2022/05/06 18:37:40;;;;;;;25.85;17.90;;;;;15.10;96837.00;;;;8449298;28;20245;-78
2022/05/06 18:41:43;;;;;;;27.23;17.10;;;;;15.00;96839.00;;;;8443464;28;20244;-78
2022/05/06 18:45:47;;;;;;;23.38;17.48;;;;;15.00;96842.00;;;;8448775;28;20226;-79
2022/05/06 18:49:50;;;;;;;24.30;17.45;;;;;15.00;96842.00;;;;8444665;28;20325;-78
2022/05/06 18:54:00;;;;;;;52.05;24.63;;;;;15.00;96849.00;;;;8446791;27;20560;-81
2022/05/06 18:58:04;;;;;;;28.52;19.52;;;;;15.00;96849.00;;;;8443360;27;20215;-79
2022/05/06 19:02:07;;;;;;;49.40;28.13;;;;;15.00;96852.00;;;;8440971;27;20602;-79
2022/05/06 19:06:13;;;;;;;33.50;21.15;;;;;15.00;96869.00;;;;8404512;27;20298;-80
2022/05/06 19:10:17;;;;;;;33.15;18.60;;;;;15.00;96868.00;;;;8469462;27;20637;-79
2022/05/06 19:14:20;;;;;;;32.95;20.45;;;;;15.00;96859.00;;;;8361732;27;20222;-80
2022/05/06 19:18:26;;;;;;;35.17;21.27;;;;;15.00;96857.00;;;;8416286;27;20236;-79
2022/05/06 19:26:52;;;;;;;22.52;16.70;;;;;15.00;96867.00;;;;8411910;27;20228;-81
2022/05/06 19:30:55;;;;;;;34.95;21.58;;;;;15.00;96871.00;;;;8453923;27;20302;-78
2022/05/06 19:34:59;;;;;;;31.45;19.88;;;;;15.00;96870.00;;;;8456969;27;20229;-78
2022/05/06 19:39:03;;;;;;;26.50;17.95;;;;;15.00;96869.00;;;;8416980;27;20236;-79
2022/05/06 19:43:10;;;;;;;34.53;20.40;;;;;15.00;96859.00;;;;8475903;27;20224;-79
2022/05/06 19:47:15;;;;;;;32.85;19.98;;;;;15.00;96866.00;;;;8473797;27;20226;-79
2022/05/06 19:52:55;;;;;;;40.42;22.95;;;;;15.00;96871.00;;;;8471782;27;20635;-78
2022/05/06 19:55:42;;;;;;;45.15;23.55;;;;;15.00;96867.00;;;;8466844;27;20819;-79
2022/05/06 19:59:47;;;;;;;28.30;18.63;;;;;15.00;96867.00;;;;8470366;27;20711;-78
2022/05/06 20:03:50;;;;;;;32.72;20.02;;;;;15.00;96864.00;;;;8427835;27;20880;-77
2022/05/06 20:08:01;;;;;;;31.35;18.98;;;;;15.00;96862.00;;;;8438194;27;20235;-78
2022/05/06 20:12:05;;;;;;;22.45;16.40;;;;;15.00;96869.00;;;;8451461;27;20233;-76
2022/05/06 20:16:10;;;;;;;23.02;17.23;;;;;15.00;96862.00;;;;8407977;27;20808;-77
2022/05/06 20:20:21;;;;;;;29.58;18.50;;;;;15.00;96867.00;;;;8454888;27;20279;-77
2022/05/06 20:24:31;;;;;;;28.60;18.33;;;;;15.00;96864.00;;;;8457197;27;20256;-77
2022/05/06 20:28:35;;;;;;;26.13;16.17;;;;;15.00;96867.00;;;;8451777;27;20368;-78
2022/05/06 20:32:40;;;;;;;27.00;16.38;;;;;15.10;96866.00;;;;8441554;27;20244;-78
2022/05/06 20:36:44;;;;;;;25.35;17.10;;;;;15.10;96861.00;;;;8447362;27;20232;-77
2022/05/06 20:40:47;;;;;;;20.67;14.50;;;;;15.10;96861.00;;;;8454644;27;20217;-77
2022/05/06 20:44:50;;;;;;;27.23;15.40;;;;;15.10;96866.00;;;;8466529;27;20238;-78
2022/05/06 20:48:55;;;;;;;23.77;15.90;;;;;15.10;96868.00;;;;8471826;27;20218;-80
2022/05/06 20:52:58;;;;;;;22.90;14.25;;;;;15.10;96869.00;;;;8473516;27;20226;-77
2022/05/06 21:01:22;;;;;;;24.08;14.40;;;;;15.20;96867.00;;;;8427051;27;20232;-77
2022/05/06 21:05:27;;;;;;;25.58;15.05;;;;;15.20;96867.00;;;;8471967;27;20779;-74
2022/05/06 21:13:51;;;;;;;22.85;15.02;;;;;15.20;96869.00;;;;8462786;27;20230;-72
2022/05/06 21:17:55;;;;;;;18.40;13.98;;;;;15.20;96865.00;;;;8434233;27;20221;-69